NWS Home NWS Lubbock West Texas Mesonet Latest Conditions as of 0223 PM, Mon Dec 09, 2019

Latest   N   C   S   Daily Sum   3hrΔ   24hrΔ   Soil Data 
Site Map   24hr Precip   72hr Precip   Google Plot


Station Time of Last Temp Dew Pt. RH Wind Direction Wind Speed Wind Gust Max Wind Max Temp Min Temp Max RH Min RH Altimeter 1HR Rain Today's Rain Solar Rad Wind ChillRFTI
Abernathy 5ENE  02:15 PM 53 30 43% NE1417 28 mph 266° @ 0310 AM 55 50 61 41 29.94" 0 0 212   0
Adrian 6WSW  02:15 PM 38 26 62% NE1417 27 mph 246° @ 0139 AM 50 38 72 55 29.98" 0 0 188   0
Aiken 3WSW  02:15 PM 48 31 50% NE1618 26 mph 263° @ 0601 AM 54 47 72 42 29.97" 0 0 293   0
Amarillo 15NNW   02:15 PM 40 20 44% NE1315 26 mph 254° @ 0249 AM 55 39 70 42 30.00" 0 0 147   0
Amarillo 7SSE  02:15 PM 40 28 61% N1418 31 mph 19° @ 1023 AM 53 38 67 51 29.98" 0 0 195   0
Amarillo 9NNE  02:15 PM 41 24 52% N1517 26 mph 9° @ 1022 AM 54 39 74 51 29.99" 0 0 178   0
Amherst 1NE  02:15 PM 49 31 50% NE1518 32 mph 250° @ 0205 AM 55 46 72 44 29.95" 0 0 163   0
Andrews 2E  02:15 PM 52 49 93% SE11 19 mph 266° @ 1025 AM 61 51 93 49 29.95" 0.06 0.14 41   0
Anton 6SSW  02:15 PM 55 32 42% NE1317 28 mph 241° @ 0350 AM 57 50 61 42 29.93" 0 0 197   0
Aspermont 3NE  02:15 PM 55 35 48% N1521 24 mph 10° @ 0155 PM 65 55 61 39 29.92" 0 0 70   0
Big Bend NP - Castolon  02:15 PM 81 42 25% NW67 12 mph 296° @ 0138 PM 81 50 60 25 29.78" 0 0 268   0
Big Bend NP - Persimmon Gap  02:15 PM 77 41 28% SW45 18 mph 16° @ 0804 AM 78 48 57 26 29.83" 0 0 627   0
Big Lake 1WNW  02:15 PM 64 42 46% N1012 23 mph 285° @ 0753 AM 68 54 65 38 29.92" 0 0 24   0
Bootleg 11WNW  02:15 PM 39 28 63% NE1013 35 mph 249° @ 0127 AM 50 39 70 53 30.00" 0 0 164   0
Boys Ranch 1WSW  02:15 PM 43 25 50% NE1011 23 mph 47° @ 0912 AM 54 40 68 47 30.01" 0 0 155   0
Brownfield 2S  02:15 PM 58 40 51% W57 21 mph 285° @ 0655 AM 58 53 65 48 29.91" 0 0 131   0
Canadian 6E  02:15 PM 38 18 45% N1922 34 mph 355° @ 0927 AM 52 37 74 44 29.99" 0 0 209   0
Caprock Canyons State Park  02:15 PM 44 29 55% N1316 43 mph 265° @ 0348 AM 58 44 57 40 29.98" 0 0 194   0
Childress 2NNE  02:15 PM 44 26 47% N1722 31 mph 359° @ 1040 AM 61 44 54 41 29.97" 0 0 127   0
Clarendon 2WSW  02:15 PM 41 25 53% N1720 34 mph 357° @ 1000 AM 59 41 63 44 29.97" 0 0 218   0
Claude 12SW  02:15 PM 40 27 60% N1518 34 mph 243° @ 1220 AM 54 39 67 48 29.97" 0 0 191   0
Clyde 2WNW  02:15 PM 65 42 43% NW1923 28 mph 319° @ 0110 PM 66 59 62 41 29.89" 0 0 214   0
Colorado City 5NW  02:15 PM 57 51 80% W911 20 mph 317° @ 1142 AM 61 54 80 54 29.93" 0.01 0.03 98   0
Coyanosa 2N  02:15 PM 58 47 67% W1012 24 mph 277° @ 0923 AM 65 58 67 46 29.92" 0 0 48   0
Crane 1NNW   02:15 PM 61 44 53% N79 17 mph 314° @ 1119 AM 65 57 63 46 29.92" 0 0 28   0
Crowell 1E  02:15 PM 48 31 51% N2123 31 mph 6° @ 1230 PM 66 48 52 37 29.97" 0 0 81   0
Dell City  02:15 PM 51 46 81% NW1114 18 mph 253° @ 0614 AM 58 49 96 63 29.99" 0 0.11 102   0
Denver City 7WNW  02:15 PM 57 40 55% SW68 27 mph 250° @ 0255 AM 57 51 66 55 29.92" 0 0 108   0
Dimmitt 2NE  02:15 PM 40 29 65% N1620 32 mph 252° @ 1205 AM 51 40 72 54 29.96" 0 0 185   0
Doole 3WNW  02:15 PM 68 44 42% NW1012 26 mph 221° @ 1226 AM 71 61 78 39 29.87" 0 0.01 235   0
Dora NM 2SW  02:15 PM 50 33 51% NE1317 27 mph 260° @ 0140 AM 54 47 66 43 29.93" 0 0 142   0
Dozier 3W  02:15 PM 43 27 52% N914 38 mph 349° @ 0951 AM 60 42 61 42 29.99" 0 0 189   0
Earth 9WSW  02:15 PM 46 30 53% NE1517 34 mph 242° @ 0236 AM 54 46 66 45 29.97" 0 0 143   0
Endee NM 2SW  02:15 PM 41 28 58% NE1315 28 mph 249° @ 0115 AM 52 41 70 51 29.99" 0 0 228   0
Estelline 3SSE  02:15 PM 47 28 48% N1517 31 mph 255° @ 0240 AM 63 45 52 39 29.99" 0 0 157   0
Floydada 2NNE  02:15 PM 49 31 50% NE1317 26 mph 264° @ 0450 AM 55 49 61 39 29.94" 0 0 208   0
Fluvanna 3WNW  02:15 PM 56 44 66% SW45 20 mph 292° @ 1215 AM 60 55 76 43 29.91" 0 0.01 59   0
Fort Chadbourne  02:15 PM 63 44 49% NW1115 25 mph 321° @ 0130 PM 64 56 88 48 29.90" 0 0.03 362   0
Fort Lancaster  02:15 PM 75 45 34% N912 19 mph 305° @ 1248 PM 75 44 91 34 29.87" 0 0 786   0
Fort Lewis CO  02:15 PM 35 29 80% SW57 19 mph 305° @ 0132 AM 38 13 100 65 29.99" 0.09 0.35 282   0
Fort McKavett  02:15 PM 67 43 42% N1215 22 mph 324° @ 0133 PM 71 51 100 36 29.89" 0 0 187   0
Friona 2NE  02:15 PM 41 30 66% NE1418 33 mph 268° @ 0410 AM 51 41 79 55 29.98" 0 0 224   0
Fritch 1WNW  02:15 PM 39 22 49% NE1315 34 mph 243° @ 1228 AM 55 38 71 43 30.00" 0 0 197   0
Gail 2ESE  02:15 PM 56 46 73% NW24 20 mph 268° @ 0715 AM 62 54 78 39 29.91" 0.01 0.05 69   0
Goodlett 3W  02:15 PM 46 28 52% NW1417 32 mph 336° @ 0935 AM 63 45 53 40 29.97" 0 0 94   0
Goodnight  02:15 PM 41 27 59% N1518 37 mph 262° @ 1229 AM 55 39 68 51 29.99" 0 0 187   0
Graham 5SSW  02:10 PM 57 39 52% NE811 19 mph 274° @ 1100 AM 58 52 68 48 29.90" 0 0 52   0
Guadalupe Mtns Natl Park  02:15 PM 44 41 91% E57 39 mph 275° @ 0528 AM 53 44 92 52 29.99" 0.04 0.39 53   0
Guthrie 10WSW  02:15 PM 50 33 51% N1520 23 mph 2° @ 1205 PM 62 50 54 33 29.93" 0 0 55   0
Hackberry 2 SSE  02:15 PM 48 31 53% N1618 29 mph 257° @ 1205 AM 64 48 53 37 29.97" 0 0 111   0
Happy 1E  02:15 PM 40 28 62% NE1619 32 mph 272° @ 0155 AM 53 40 69 52 29.98" 0 0 224   0
Hart 3N  02:15 PM 43 31 63% NE1622 24 mph 16° @ 0100 PM 50 43 76 51 29.97" 0 0 197   0
Haskell 1NW  02:15 PM 53 36 51% N2028 28 mph 0° @ 0150 PM 65 53 70 38 29.91" 0 0 61   0
Hefner 1SW  02:15 PM 49 32 51% N2124 27 mph 6° @ 1253 PM 66 49 62 34 29.95" 0 0 82   0
Hereford 2NW  02:15 PM 40 30 67% NE1217 28 mph 261° @ 0235 AM 50 39 82 56 29.98" 0 0 190   0
Hobbs NM 5NW  02:15 PM 56 42 58% SW78 24 mph 266° @ 0244 AM 59 54 61 47 29.95" 0 0 76   0
Jayton 1SSE  02:15 PM 54 34 48% NE1421 24 mph 21° @ 0150 PM 62 54 60 40 29.92" 0 0 42   0
Junction 1SSW  02:15 PM 75 43 31% N45 17 mph 4° @ 0127 PM 77 49 100 30 29.85" 0 0 266   0
Kent 9E  02:15 PM 49 47 91% NW1214 23 mph 253° @ 1246 PM 58 49 93 56 29.98" 0.01 0.01 121   0
Knox City 3NW  02:15 PM 52 35 53% N1723 24 mph 7° @ 0145 PM 67 52 61 38 29.95" 0 0 73   0
Lake Alan Henry 1NW  02:15 PM 55 36 48% NE1214 22 mph 51° @ 0157 PM 63 55 73 40 29.91" 0 0 46   0
Lake McClellan 2NW  02:15 PM 39 24 53% N2024 38 mph 352° @ 0927 AM 54 38 68 52 29.97" 0 0 184   0
Lamesa 2SE  02:15 PM 53 46 79% S57 19 mph 235° @ 0130 PM 58 53 83 52 29.92" 0 0.01 29   0
Lesley 2S  02:15 PM 46 28 50% N1316 34 mph 256° @ 0106 AM 60 46 53 44 29.99" 0 0 178   0
Levelland 4S  02:15 PM 56 37 49% N811 21 mph 273° @ 0715 AM 59 49 71 41 29.92" 0 0 199   0
Lomax 1SSE  02:15 PM 55 51 89% NW45 20 mph 327° @ 1205 PM 63 55 89 45 29.95" 0.03 0.07 50   0
Lubbock 3WNW TTU  02:15 PM 56 33 44% NE1015 25 mph 266° @ 0450 AM 58 53 59 41 29.93" 0 0 216   0
McCamey 1SSW  02:15 PM 64 43 47% NW1415 21 mph 296° @ 1211 PM 68 53 67 40 29.92" 0 0 70   0
McLean 1E  02:15 PM 39 25 57% N1925 39 mph 269° @ 0120 AM 57 38 68 46 29.95" 0 0 197   0
Memphis 1NE  02:15 PM 46 27 48% N1421 31 mph 341° @ 0950 AM 60 45 56 43 29.98" 0 0 136   0
Menard 2NW   02:15 PM 68 44 42% N1316 21 mph 344° @ 0144 PM 73 48 100 34 29.88" 0 0 164   0
Mertzon 3NNE  02:15 PM 65 45 48% N1619 23 mph 10° @ 0210 PM 70 52 87 37 29.91" 0 0 287   0
Morton 1ENE  02:15 PM 54 34 46% NE1318 25 mph 266° @ 0615 AM 58 51 60 37 29.92" 0 0 135   0
Muleshoe 2SSW  02:15 PM 47 32 56% NE1317 31 mph 256° @ 0305 AM 53 46 70 50 29.96" 0 0 145   0
New Home  02:15 PM 56 38 51% E1011 21 mph 275° @ 0112 AM 58 51 67 47 29.93" 0 0 148   0
Northfield 1S  02:15 PM 47 28 48% N1015 30 mph 258° @ 0230 AM 61 46 51 37 29.98" 0 0 137   0
O'Donnell 1N  02:15 PM 56 44 66% SW55 19 mph 257° @ 0420 AM 56 52 72 54 29.91" 0 0 43   0
Odell 4ENE  02:15 PM 45 28 51% NW1922 33 mph 330° @ 1102 AM 64 45 54 39 29.97" 0 0 77   0
Olton 6S  02:15 PM 48 31 52% NE1620 34 mph 249° @ 0235 AM 55 46 71 45 29.96" 0 0 178   0
Paducah 10SW  02:15 PM 47 31 54% N1924 33 mph 282° @ 0525 AM 63 47 54 38 29.96" 0 0 106   0
Palo Duro 4E (JA Ranch)  02:15 PM 44 27 49% N1820 33 mph 261° @ 0122 AM 58 44 57 45 29.99" 0 0 285   0
Palo Duro Canyon SP Floor  02:15 PM 44 28 53% N912 26 mph 340° @ 0930 AM 57 43 59 45 30.00" 0 0 171   0
Palo Duro Canyon State Park Rim  02:15 PM 41 27 59% N1113 30 mph 263° @ 0129 AM 53 40 64 48 29.99" 0 0 187   0
Palo Duro Reservoir 1NW   02:15 PM 39 18 43% N1720 37 mph 327° @ 0353 AM 53 35 76 42 30.00" 0 0 233   0
Pampa 2E  02:15 PM 37 21 52% N1824 35 mph 342° @ 1110 AM 54 36 74 48 29.97" 0 0 218   0
Panhandle 1SSW  02:15 PM 39 26 60% N1520 30 mph 345° @ 0945 AM 52 37 72 51 29.99" 0 0 216   0
Plains 3N  02:15 PM 58 32 37% NW714 18 mph 283° @ 0800 AM 59 48 78 36 29.92" 0 0 104   0
Plainview 1S  02:15 PM 47 32 57% NE1418 27 mph 268° @ 0415 AM 55 47 72 45 29.95" 0 0 228   0
Post 1NE  02:15 PM 54 30 40% NE1418 25 mph 262° @ 1235 AM 61 54 61 39 29.91" 0 0 51   0
Ralls 1SE  02:15 PM 51 30 45% NE1519 27 mph 261° @ 1235 AM 57 51 53 42 29.94" 0 0 157   0
Reese Center  02:15 PM 56 34 44% NE1317 23 mph 292° @ 0655 AM 57 49 65 43 29.92" 0 0 233   0
Roaring Springs 3N  02:15 PM 47 34 59% NE1520 32 mph 256° @ 0410 AM 59 47 59 45 29.95" 0 0 131   0
Romero 11SSW  02:15 PM 42 25 52% NE1214 33 mph 252° @ 0100 AM 51 40 75 51 29.98" 0 0 223   0
Rotan 5W  02:15 PM 59 35 40% N1922 25 mph 343° @ 0206 PM 65 57 61 39 29.91" 0 0 124   0
San Angelo 7NW  02:15 PM 66 40 39% NW1520 24 mph 341° @ 0110 PM 67 54 72 38 29.89" 0 0 290   0
Seagraves 1SW  02:15 PM 58 43 59% SW913 21 mph 266° @ 0540 AM 58 51 67 52 29.91" 0 0 74   0
Segovia 7SSW  02:15 PM 75 42 31% N79 18 mph 337° @ 1245 PM 77 55 96 29 29.87" 0 0 406   0
Seminole 2NNE  02:15 PM 57 41 55% SW611 20 mph 281° @ 0725 AM 58 55 65 50 29.93" 0 0 63   0
Seymour 3NW  02:15 PM 49 33 54% N2026 30 mph 343° @ 1245 PM 65 49 67 37 29.95" 0 0 83   0
Sierra Blanca 1SSE  02:15 PM 46 46 97% NW1517 20 mph 310° @ 0702 AM 56 46 100 66 30.01" 0.02 0.16 52   0
Silverton 7ESE  02:15 PM 44 28 53% N1318 33 mph 257° @ 0340 AM 54 43 62 43 29.96" 0 0 183   0
Slaton 2NE  02:15 PM 54 33 46% NE1319 23 mph 260° @ 1205 AM 58 54 62 46 29.92" 0 0 145   0
Smyer  02:15 PM 56 36 47% NE1011 23 mph 269° @ 0837 AM 58 49 65 46 29.92" 0 0 243   0
Snyder 3E  02:15 PM 60 43 54% SW710 25 mph 312° @ 1100 AM 61 54 69 45 29.90" 0 0 126   0
Snyder 3SSW  02:15 PM 59 46 62% SW79 23 mph 312° @ 1057 AM 62 53 69 41 29.91" 0 0 126   0
South Plains 3ENE  02:15 PM 46 30 54% NE1417 29 mph 269° @ 0450 AM 54 46 62 42 29.96" 0 0 227   0
Spur 1W  02:15 PM 53 33 46% NE1520 25 mph 288° @ 0620 AM 61 53 58 39 29.92" 0 0 63   0
St. Lawrence 5SW  02:15 PM 55 47 77% N2023 24 mph 356° @ 0210 PM 63 55 77 48 29.94" 0 0 33   0
Stamford 5ESE  02:15 PM 57 35 43% N1821 26 mph 3° @ 0135 PM 65 56 67 39 29.90" 0 0 80   0
Sterling City 4WSW  02:15 PM 58 48 71% NW811 19 mph 341° @ 1239 PM 65 56 77 42 29.93" 0 0 176   0
Stinnett 1NNW  02:15 PM 37 21 53% N1618 39 mph 359° @ 0836 AM 51 36 74 47 30.00" 0 0 172   0
Stratford 4WNW  02:15 PM 40 19 41% N1214 28 mph 352° @ 0719 AM 48 35 75 39 30.00" 0 0 241   0
Sundown 8WSW  02:15 PM 58 34 40% N1421 22 mph 329° @ 0100 PM 60 48 73 35 29.92" 0 0 109   0
Sweetwater 11SW   02:15 PM 55 49 81% W1013 25 mph 307° @ 1106 AM 63 55 82 44 29.93" 0.03 0.03 94   0
Tahoka 3NNE  02:15 PM 57 38 50% NE79 17 mph 259° @ 0303 AM 59 49 71 46 29.92" 0 0 101   0
Tarzan 2WNW  02:15 PM 53 52 94% S56 16 mph 234° @ 0516 AM 60 53 94 55 29.93" 0.03 0.14 43   0
Tatum NM 2SW  02:15 PM 56 32 41% NW79 22 mph 318° @ 1150 AM 58 48 71 36 29.93" 0 0 93   0
Throckmorton 1SW  02:15 PM 52 36 53% N1218 28 mph 284° @ 1009 AM 67 52 63 35 29.92" 0 0 61   0
Truscott 2SE  02:15 PM 48 31 50% N1720 26 mph 353° @ 1238 PM 64 48 53 36 29.96" 0 0 66   0
Tulia 2ENE  02:15 PM 43 29 59% N1419 28 mph 258° @ 1220 AM 52 42 67 48 29.97" 0 0 247   0
Turkey 2WSW  02:15 PM 47 30 53% NW1720 31 mph 253° @ 0620 AM 58 47 54 42 29.97" 0 0 145   0
Umbarger 3NNE  02:15 PM 41 29 64% NE1621 30 mph 22° @ 1008 AM 51 39 73 56 29.98" 0 0 176   0
Van Horn 3ENE  02:15 PM 51 48 89% W57 25 mph 291° @ 0205 AM 59 51 89 58 29.99" 0.04 0.04 79   0
Vigo Park  02:15 PM 42 29 61% N1115 30 mph 260° @ 0438 AM 52 41 68 48 29.98" 0 0 245   0
Wall 2E  02:15 PM 67 43 41% N1619 24 mph 353° @ 1249 PM 68 57 80 40 29.90" 0 0 304   0
Weinert 2NNE  02:15 PM 51 33 51% N1725 28 mph 8° @ 0136 PM 67 51 61 34 29.94" 0 0 59   0
Welch  02:15 PM 57 46 67% SW78 16 mph 275° @ 1217 AM 57 52 76 50 29.92" 0 0 78   0
White River Lake 6NW  02:15 PM 52 32 46% NE1521 33 mph 294° @ 0915 AM 60 52 52 40 29.92" 0 0 89   0
Wolfforth 6SSW  02:15 PM 57 38 50% NE810 23 mph 282° @ 0555 AM 58 52 65 48 29.92" 0 0 187   0

West Texas Mesonet Home   Site Map/Menu  NWS Lubbock Soil Data  Daily Summary Page  24hr Precip  72hr Precip  Google Plot